Time;durP1;ratioP1;P1;durP2;ratioP2;P2;SDS_P1;SDS_P2;PMS_P1;PMS_P2;Temp;Humidity;BMP_temperature;BMP_pressure;BME280_temperature;BME280_humidity;BME280_pressure;Samples;Min_cycle;Max_cycle;Signal;HPM_P1;HPM_P2
2021/12/03 00:01:05;;;;;;;;;;;;;;;21.17;53.06;98779.44;20346358;28;101045;-79
2021/12/03 00:11:09;;;;;;;;;;;;;;;21.15;53.26;98784.00;20366138;28;98186;-79
2021/12/03 00:21:11;;;;;;;;;;;;;;;21.10;52.96;98779.22;20359894;28;99730;-78
2021/12/03 00:31:12;;;;;;;;;;;;;;;21.06;53.16;98791.88;20383173;28;101598;-79
2021/12/03 00:41:15;;;;;;;;;;;;;;;21.03;53.20;98807.97;20380045;28;99716;-79
2021/12/03 00:51:18;;;;;;;;;;;;;;;21.02;53.22;98827.38;20385157;28;97034;-79
2021/12/03 01:01:18;;;;;;;;;;;;;;;21.01;52.77;98835.44;20379882;28;100510;-78
2021/12/03 01:11:19;;;;;;;;;;;;;;;20.98;52.36;98841.00;20397005;28;100984;-80
2021/12/03 01:21:19;;;;;;;;;;;;;;;20.97;51.88;98834.09;20391370;28;100801;-79
2021/12/03 01:31:20;;;;;;;;;;;;;;;20.93;52.83;98850.19;20403051;28;98159;-80
2021/12/03 01:41:21;;;;;;;;;;;;;;;20.93;52.34;98854.63;20398780;28;96873;-80
2021/12/03 01:51:21;;;;;;;;;;;;;;;20.88;51.89;98862.16;20396904;28;101712;-79
2021/12/03 02:01:25;;;;;;;;;;;;;;;20.87;51.87;98865.75;20394013;28;101449;-79
2021/12/03 02:11:25;;;;;;;;;;;;;;;20.87;52.25;98868.38;20355598;28;98746;-78
2021/12/03 02:21:26;;;;;;;;;;;;;;;20.83;52.54;98883.66;20402380;28;97209;-80
2021/12/03 02:31:28;;;;;;;;;;;;;;;20.82;52.61;98889.88;20382252;28;97966;-78
2021/12/03 02:41:29;;;;;;;;;;;;;;;20.79;52.01;98908.63;20392592;28;98309;-79
2021/12/03 02:51:30;;;;;;;;;;;;;;;20.77;51.64;98916.66;20370649;28;97002;-79
2021/12/03 03:01:30;;;;;;;;;;;;;;;20.77;52.12;98928.97;20381599;28;97491;-79
2021/12/03 03:11:31;;;;;;;;;;;;;;;20.74;51.82;98955.59;20390784;28;97610;-78
2021/12/03 03:21:31;;;;;;;;;;;;;;;20.72;51.63;98973.34;20377280;28;97507;-79
2021/12/03 03:31:32;;;;;;;;;;;;;;;20.67;51.20;98984.28;20386676;28;97498;-77
2021/12/03 03:41:33;;;;;;;;;;;;;;;20.66;51.47;99006.28;20386079;28;101006;-78
2021/12/03 03:51:34;;;;;;;;;;;;;;;20.65;51.44;99004.63;20385743;28;97239;-80
2021/12/03 04:01:35;;;;;;;;;;;;;;;20.64;51.11;99029.25;20395050;28;97010;-78
2021/12/03 04:11:35;;;;;;;;;;;;;;;20.62;51.60;99031.25;20389494;28;97666;-78
2021/12/03 04:21:36;;;;;;;;;;;;;;;20.61;51.21;99050.63;20390291;28;99087;-78
2021/12/03 04:31:36;;;;;;;;;;;;;;;20.57;51.28;99083.47;20388479;28;101580;-77
2021/12/03 04:41:37;;;;;;;;;;;;;;;20.56;51.17;99100.22;20390345;28;97658;-78
2021/12/03 04:51:37;;;;;;;;;;;;;;;20.56;52.01;99126.50;20380715;28;99335;-78
2021/12/03 05:01:39;;;;;;;;;;;;;;;20.54;50.54;99154.75;20379487;28;97870;-77
2021/12/03 05:11:39;;;;;;;;;;;;;;;20.62;51.46;99157.47;20364754;28;100491;-78
2021/12/03 05:21:40;;;;;;;;;;;;;;;20.95;52.52;99195.56;20378316;28;98981;-78
2021/12/03 05:31:40;;;;;;;;;;;;;;;21.18;52.93;99218.00;20373323;28;98023;-80
2021/12/03 05:41:41;;;;;;;;;;;;;;;21.31;52.66;99247.44;20371205;28;97761;-77
2021/12/03 05:51:42;;;;;;;;;;;;;;;21.43;52.92;99266.50;20378752;28;97096;-77
2021/12/03 06:01:42;;;;;;;;;;;;;;;21.17;49.02;99308.53;20400986;28;98922;-78
2021/12/03 06:11:43;;;;;;;;;;;;;;;21.32;49.75;99325.47;20363028;28;97350;-79
2021/12/03 06:21:43;;;;;;;;;;;;;;;19.06;40.60;99345.53;20386174;28;98685;-76
2021/12/03 06:31:43;;;;;;;;;;;;;;;20.19;43.17;99359.47;20372382;28;97687;-79
2021/12/03 06:41:44;;;;;;;;;;;;;;;20.58;45.83;99398.06;20390002;28;97605;-78
2021/12/03 06:51:45;;;;;;;;;;;;;;;20.91;46.98;99419.66;20381822;28;97596;-78
2021/12/03 07:01:45;;;;;;;;;;;;;;;21.09;46.61;99428.50;20392483;28;97076;-78
2021/12/03 07:11:48;;;;;;;;;;;;;;;21.21;47.15;99457.31;20386738;28;97022;-79
2021/12/03 07:21:48;;;;;;;;;;;;;;;21.28;46.68;99482.91;20376113;28;98301;-79
2021/12/03 07:31:49;;;;;;;;;;;;;;;21.34;47.47;99521.03;20378128;28;98002;-79
2021/12/03 07:41:49;;;;;;;;;;;;;;;21.42;47.42;99565.09;20359053;28;96940;-79
2021/12/03 07:51:50;;;;;;;;;;;;;;;21.48;47.61;99595.31;20365478;28;97561;-78
2021/12/03 08:01:50;;;;;;;;;;;;;;;21.49;46.79;99605.69;20393291;28;97683;-79
2021/12/03 08:11:51;;;;;;;;;;;;;;;21.52;46.97;99623.88;20384874;28;97611;-79
2021/12/03 08:21:51;;;;;;;;;;;;;;;21.51;46.89;99659.06;20411924;28;97140;-77
2021/12/03 08:31:51;;;;;;;;;;;;;;;21.56;47.28;99685.00;20402899;28;97065;-78
2021/12/03 08:41:52;;;;;;;;;;;;;;;21.61;47.35;99693.34;20392575;28;97038;-79
2021/12/03 08:52:51;;;;;;;;;;;;;;;21.63;46.93;99730.94;20392393;28;97429;-77
2021/12/03 09:02:16;;;;;;;;;;;;;;;21.72;47.68;99739.81;20390612;28;98624;-80
2021/12/03 09:12:16;;;;;;;;;;;;;;;21.71;47.29;99753.97;20418019;28;99383;-80
2021/12/03 09:22:32;;;;;;;;;;;;;;;;;;20414265;28;96870;-80
2021/12/03 09:32:33;;;;;;;;;;;;;;;21.86;47.41;99786.84;20382276;28;96704;-78
2021/12/03 09:42:37;;;;;;;;;;;;;;;21.94;47.03;99787.97;20386810;28;101740;-78
2021/12/03 10:03:16;;;;;;;;;;;;;;;22.00;46.71;99790.88;20397596;28;101248;-78
2021/12/03 10:13:27;;;;;;;;;;;;;;;22.07;46.85;99820.97;20403014;28;96822;-78
2021/12/03 10:54:05;;;;;;;;;;;;;;;22.25;45.99;99822.91;20386885;28;97731;-77
2021/12/03 13:08:25;;;;;;;;;;;;;;;22.06;46.40;99937.13;20401551;28;97427;-79
2021/12/03 13:29:09;;;;;;;;;;;;;;;21.92;46.63;99967.31;20425683;28;98191;-80
2021/12/03 14:09:53;;;;;;;;;;;;;;;21.80;45.64;100010.56;20409817;28;97207;-82
2021/12/03 15:00:35;;;;;;;;;;;;;;;21.48;46.08;100086.06;20446907;28;96871;-82
2021/12/03 15:31:15;;;;;;;;;;;;;;;21.50;46.24;100110.50;20438451;28;96814;-82
2021/12/03 16:12:43;;;;;;;;;;;;;;;21.44;46.65;100174.22;20414783;28;96919;-81
2021/12/03 16:53:25;;;;;;;;;;;;;;;21.42;46.61;100216.50;20398874;28;101894;-79
2021/12/03 17:03:37;;;;;;;;;;;;;;;21.47;46.59;100212.66;20370684;28;99136;-78
2021/12/03 17:24:41;;;;;;;;;;;;;;;21.62;46.85;100216.69;20385670;28;98017;-78
2021/12/03 18:55:51;;;;;;;;;;;;;;;21.82;46.66;100245.84;20244734;28;99126;-78
2021/12/03 19:16:08;;;;;;;;;;;;;;;22.15;48.14;100255.38;20224101;28;101878;-77
2021/12/03 19:26:08;;;;;;;;;;;;;;;22.25;49.84;100251.97;20207205;28;98698;-78
2021/12/03 19:36:10;;;;;;;;;;;;;;;22.41;50.73;100262.09;20229455;28;96992;-76
2021/12/03 19:46:14;;;;;;;;;;;;;;;22.37;50.46;100272.03;20219812;28;97702;-78
2021/12/03 19:56:14;;;;;;;;;;;;;;;22.41;50.10;100275.28;20374398;28;98459;-76
2021/12/03 20:06:15;;;;;;;;;;;;;;;22.49;49.77;100280.75;20366872;28;97364;-79
2021/12/03 20:16:29;;;;;;;;;;;;;;;22.34;49.73;100296.06;20361877;28;99884;-76
2021/12/03 20:26:49;;;;;;;;;;;;;;;22.28;49.21;100286.03;20355328;28;98433;-78
2021/12/03 20:36:51;;;;;;;;;;;;;;;22.14;49.36;100290.66;20368611;28;97530;-77
2021/12/03 21:27:34;;;;;;;;;;;;;;;21.68;49.23;100271.53;20385991;28;97436;-77
2021/12/03 21:47:53;;;;;;;;;;;;;;;21.61;49.60;100286.16;20385694;28;96997;-77
2021/12/03 21:57:54;;;;;;;;;;;;;;;21.55;49.59;100276.91;20386070;28;100770;-76
2021/12/03 22:07:54;;;;;;;;;;;;;;;21.48;49.61;100282.81;20360047;28;100999;-79
2021/12/03 22:17:55;;;;;;;;;;;;;;;21.43;49.57;100283.19;20386451;28;97143;-77
2021/12/03 22:27:55;;;;;;;;;;;;;;;21.38;49.29;100273.00;20390978;28;98987;-77
2021/12/03 22:37:56;;;;;;;;;;;;;;;21.33;49.58;100269.09;20385871;28;98468;-79
2021/12/03 22:47:58;;;;;;;;;;;;;;;21.28;49.42;100251.00;20384384;28;97781;-77
2021/12/03 22:58:00;;;;;;;;;;;;;;;21.25;49.30;100235.44;20378290;28;97722;-78
2021/12/03 23:08:01;;;;;;;;;;;;;;;21.21;49.25;100232.22;20385225;28;97947;-78
2021/12/03 23:18:03;;;;;;;;;;;;;;;21.18;48.94;100219.31;20371086;28;100320;-78
2021/12/03 23:28:04;;;;;;;;;;;;;;;21.15;49.43;100219.53;20381314;28;98115;-78
2021/12/03 23:38:04;;;;;;;;;;;;;;;21.10;49.28;100208.56;20389208;28;101932;-77
2021/12/03 23:48:05;;;;;;;;;;;;;;;21.06;49.15;100209.78;20353238;28;1244884;-78
2021/12/03 23:58:06;;;;;;;;;;;;;;;21.04;49.08;100193.25;20409223;28;97095;-77
